Pagrindinis puslapis
METAR-TAF:

METAR-TAF

Oro uostai :

Miri, Malaizija

platuma: 04-20N, ilguma: 113-59E, Aukštis: 17 m

Dabartinis oras

Ataskaita buvo paskelbta 39 minutes, ne 19:00 UTC
Vėjas 3 kt iš Rytų, svyruoja nuo Rytų/Šiaurės Rytų ir Pietryčių
Temperatūra 25°C
Drėgmė 94%
Slėgis 1008 hPa
Matomumas 10 km arba daugiau
Išsisklaidę debesys ne aukštis 1600 ft

METAR: WBGR 251900Z 10003KT 060V130 9999 SCT016 25/24 Q1008

Laikas: 03:39 (19:39 UTC)

Prognozė

Ataskaita buvo paskelbta 2 valandos ir 39 minutes, ne 17:00 UTC
Prognozė galioja nuo 25 metu 18 UTC su 26 metu 18 UTC
Vėjas 3 kt nuo kintamojo kryptimis
Matomumas 10 km arba daugiau
Išsisklaidę debesys ne aukštis 1600 ft
Laikinai
nuo 26 metu 05 UTC su 26 metu 09 UTC
Matomumas: 4000 m
Mažai debesys ne aukštis 1500 ft, Liūtiniai kamuoliniai debesys.
perkūnija, lietus

TAF: WBGR 251700Z 2518/2618 VRB03KT 9999 SCT016 TEMPO 2605/2609 4000 TSRA FEW015CB

Orai ataskaitas ir orų prognozės (METAR, TAF).

turimą stotys yra geltonos ir raudonos taškus žemėlapyje.

Perkelti pele per norėdami pamatyti stoties vardą.

Tada spustelėkite, norėdami matyti oro stebėjimo ir prognozės.

Norėdami pakeisti žemėlapį: spustelėkite ant žalios mygtukų su juodo kryžiaus žemyn,; žalią mygtuką su brūkšneliu, jei norite nutolinti; arba žalių rodyklių gretimoms žemėlapius.


METAR-TAF: